Time;durP1;ratioP1;P1;durP2;ratioP2;P2;SDS_P1;SDS_P2;PMS_P1;PMS_P2;Temp;Humidity;BMP_temperature;BMP_pressure;BME280_temperature;BME280_humidity;BME280_pressure;Samples;Min_cycle;Max_cycle;Signal;HPM_P1;HPM_P2
2023/05/26 00:01:28;;;;;;;5.10;1.60;;;11.20;99.90;11.10;101484.00;;;;4995644;27;108316;-70
2023/05/26 00:03:56;;;;;;;2.73;2.03;;;11.20;99.90;11.10;101489.00;;;;5003855;27;87746;-71
2023/05/26 00:06:23;;;;;;;2.63;1.73;;;11.10;99.90;11.00;101474.00;;;;5010681;27;87532;-70
2023/05/26 00:08:49;;;;;;;2.83;2.30;;;11.10;99.90;11.00;101481.00;;;;5008409;27;88158;-70
2023/05/26 00:11:14;;;;;;;3.33;2.60;;;11.00;99.90;10.90;101469.00;;;;5005970;27;108925;-72
2023/05/26 00:13:40;;;;;;;2.93;2.37;;;11.00;99.90;10.80;101477.00;;;;5005138;27;99485;-70
2023/05/26 00:16:06;;;;;;;3.50;2.80;;;10.90;99.90;10.80;101479.00;;;;5005122;27;102433;-70
2023/05/26 00:18:33;;;;;;;4.57;2.77;;;10.80;99.90;10.70;101482.00;;;;5005149;27;118182;-70
2023/05/26 00:21:00;;;;;;;6.33;2.20;;;10.80;99.90;10.60;101474.00;;;;5008042;27;87714;-70
2023/05/26 00:23:26;;;;;;;2.83;2.23;;;10.70;99.90;10.60;101489.00;;;;5003857;27;87757;-70
2023/05/26 00:25:52;;;;;;;6.23;2.40;;;10.70;99.90;10.50;101487.00;;;;5006421;27;96400;-71
2023/05/26 00:28:18;;;;;;;4.07;2.60;;;10.60;99.90;10.50;101474.00;;;;4988222;27;88090;-71
2023/05/26 00:30:44;;;;;;;4.87;2.53;;;10.60;99.90;10.40;101476.00;;;;5006102;27;106512;-70
2023/05/26 00:33:10;;;;;;;7.30;3.20;;;10.50;99.90;10.40;101485.00;;;;5006870;27;106811;-71
2023/05/26 00:35:37;;;;;;;4.43;2.40;;;10.50;99.90;10.30;101479.00;;;;5008302;27;87645;-71
2023/05/26 00:38:02;;;;;;;5.03;2.20;;;10.40;99.90;10.30;101478.00;;;;5006640;27;108284;-71
2023/05/26 00:40:28;;;;;;;2.37;2.17;;;10.30;99.90;10.20;101484.00;;;;5005913;27;118509;-71
2023/05/26 00:42:54;;;;;;;8.10;2.57;;;10.30;99.90;10.10;101480.00;;;;5005529;27;87895;-71
2023/05/26 00:45:20;;;;;;;3.00;2.03;;;10.20;99.90;10.10;101481.00;;;;5007325;27;89491;-70
2023/05/26 00:47:46;;;;;;;5.17;2.17;;;10.20;99.90;10.10;101479.00;;;;5003204;27;117700;-71
2023/05/26 00:50:12;;;;;;;4.57;2.53;;;10.20;99.90;10.10;101476.00;;;;4994477;27;90211;-71
2023/05/26 00:52:38;;;;;;;3.23;2.77;;;10.10;99.90;10.00;101475.00;;;;5003125;27;87828;-71
2023/05/26 00:55:05;;;;;;;1.70;1.53;;;10.10;99.90;10.00;101472.00;;;;4987005;27;88262;-71
2023/05/26 00:57:31;;;;;;;3.90;2.13;;;10.10;99.90;10.00;101470.00;;;;4987827;27;88098;-70
2023/05/26 00:59:57;;;;;;;4.73;2.87;;;10.10;99.90;10.00;101473.00;;;;4993125;27;95968;-70
2023/05/26 01:02:25;;;;;;;3.07;2.20;;;10.00;99.90;9.90;101470.00;;;;5006579;27;89077;-70
2023/05/26 01:04:53;;;;;;;4.70;2.50;;;10.00;99.90;9.90;101467.00;;;;4988999;27;87820;-70
2023/05/26 01:07:21;;;;;;;4.37;2.77;;;10.00;99.90;9.80;101475.00;;;;5005471;27;88111;-70
2023/05/26 01:09:48;;;;;;;9.03;2.20;;;9.90;99.90;9.80;101476.00;;;;5005946;27;101622;-71
2023/05/26 01:12:30;;;;;;;3.03;2.50;;;9.90;99.90;9.70;101457.00;;;;5007165;27;87788;-71
2023/05/26 01:15:11;;;;;;;5.33;2.87;;;9.90;99.90;9.70;101464.00;;;;5005612;27;87984;-71
2023/05/26 01:18:20;;;;;;;3.23;2.93;;;9.80;99.90;9.50;101461.00;;;;4995069;27;107883;-71
2023/05/26 01:21:08;;;;;;;4.83;2.20;;;9.70;99.90;9.50;101464.00;;;;4981552;27;87358;-71
2023/05/26 01:23:53;;;;;;;3.53;2.63;;;9.70;99.90;9.50;101471.00;;;;5002547;27;87782;-71
2023/05/26 01:26:59;;;;;;;3.23;3.00;;;9.60;99.90;9.40;101461.00;;;;4987249;27;87724;-70
2023/05/26 01:29:28;;;;;;;2.37;2.07;;;9.60;99.90;9.40;101471.00;;;;5006253;27;89180;-70
2023/05/26 01:31:54;;;;;;;7.70;3.37;;;9.20;99.90;9.50;101467.00;;;;5005353;27;89409;-71
2023/05/26 01:34:20;;;;;;;2.23;2.03;;;9.50;99.90;9.60;101472.00;;;;5005872;27;88098;-71
2023/05/26 01:36:45;;;;;;;3.10;2.70;;;9.60;99.90;9.70;101476.00;;;;5008587;27;100004;-72
2023/05/26 01:39:11;;;;;;;3.57;2.53;;;9.70;99.90;9.80;101472.00;;;;5001429;27;116241;-71
2023/05/26 01:42:18;;;;;;;3.43;2.67;;;9.80;99.90;9.90;101467.00;;;;4988800;27;117635;-71
2023/05/26 01:45:09;;;;;;;4.63;2.43;;;9.90;99.90;10.00;101474.00;;;;5002505;27;98496;-71
2023/05/26 01:47:36;;;;;;;3.27;2.83;;;10.00;99.90;10.00;101470.00;;;;5004429;27;88093;-71
2023/05/26 01:50:05;;;;;;;3.30;2.60;;;10.00;99.90;10.10;101465.00;;;;4989580;27;105709;-70
2023/05/26 01:52:31;;;;;;;4.30;2.80;;;10.10;99.90;10.20;101470.00;;;;4989587;27;89667;-71
2023/05/26 01:55:05;;;;;;;3.43;2.57;;;10.20;99.90;10.30;101473.00;;;;5002020;27;110163;-71
2023/05/26 01:57:32;;;;;;;9.50;3.20;;;10.30;99.90;10.40;101476.00;;;;5002375;27;95116;-72
2023/05/26 01:59:58;;;;;;;5.70;2.27;;;10.40;99.90;10.40;101467.00;;;;4992293;27;118014;-71
2023/05/26 02:02:23;;;;;;;3.30;2.50;;;10.40;99.90;10.50;101469.00;;;;5005447;27;91399;-71
2023/05/26 02:04:49;;;;;;;3.57;3.10;;;10.50;99.90;10.50;101468.00;;;;5005013;27;109102;-71
2023/05/26 02:07:15;;;;;;;2.67;2.47;;;10.50;99.90;10.50;101468.00;;;;5004996;27;88024;-72
2023/05/26 02:09:41;;;;;;;3.93;2.23;;;10.40;99.90;10.50;101473.00;;;;5001888;27;113848;-71
2023/05/26 02:12:07;;;;;;;2.83;2.27;;;10.50;99.90;10.60;101476.00;;;;5007673;27;87865;-71
2023/05/26 02:14:33;;;;;;;4.27;2.73;;;10.60;99.90;10.60;101452.00;;;;5005802;27;109495;-72
2023/05/26 02:16:58;;;;;;;2.57;2.23;;;10.60;99.90;10.60;101466.00;;;;4987894;27;88631;-71
2023/05/26 02:19:25;;;;;;;2.70;1.97;;;10.70;99.90;10.60;101468.00;;;;5003927;27;99363;-71
2023/05/26 02:21:50;;;;;;;4.53;2.40;;;10.60;99.90;10.60;101471.00;;;;5002617;27;87935;-71
2023/05/26 02:24:16;;;;;;;3.57;2.40;;;10.70;99.90;10.60;101458.00;;;;5003869;27;108677;-71
2023/05/26 02:26:42;;;;;;;4.10;2.53;;;10.60;99.90;10.60;101469.00;;;;5005365;27;87930;-71
2023/05/26 02:29:11;;;;;;;3.33;2.17;;;10.60;99.90;10.60;101471.00;;;;5007017;27;116732;-72
2023/05/26 02:31:37;;;;;;;3.87;1.90;;;10.60;99.90;10.60;101473.00;;;;5004479;27;88223;-71
2023/05/26 02:34:04;;;;;;;3.17;2.87;;;10.60;99.90;10.60;101472.00;;;;5004449;27;87890;-71
2023/05/26 02:36:31;;;;;;;2.93;2.63;;;10.60;99.90;10.60;101473.00;;;;5006851;27;86934;-72
2023/05/26 02:38:58;;;;;;;3.30;2.80;;;10.60;99.90;10.60;101488.00;;;;5004338;27;88732;-70
2023/05/26 02:41:25;;;;;;;4.00;2.60;;;10.60;99.90;10.60;101479.00;;;;5006468;27;87545;-71
2023/05/26 02:43:50;;;;;;;3.20;2.63;;;10.70;99.90;10.60;101480.00;;;;5006355;27;89337;-71
2023/05/26 02:46:16;;;;;;;3.73;2.90;;;10.70;99.90;10.70;101493.00;;;;5005510;27;108298;-71
2023/05/26 02:48:42;;;;;;;2.93;2.63;;;10.70;99.90;10.70;101491.00;;;;5006306;27;88978;-71
2023/05/26 02:51:07;;;;;;;4.07;2.30;;;10.70;99.90;10.70;101476.00;;;;5005857;27;87937;-72
2023/05/26 02:53:33;;;;;;;1.90;1.73;;;10.70;99.90;10.70;101480.00;;;;5005459;27;109274;-72
2023/05/26 02:55:59;;;;;;;2.67;2.47;;;10.70;99.90;10.70;101478.00;;;;5007305;27;107691;-70
2023/05/26 02:58:24;;;;;;;2.97;2.53;;;10.80;99.90;10.70;101484.00;;;;4985432;27;107721;-71
2023/05/26 03:00:50;;;;;;;3.13;2.80;;;10.80;99.90;10.60;101471.00;;;;5006688;27;88771;-72
2023/05/26 03:03:16;;;;;;;5.10;2.17;;;10.70;99.90;10.60;101481.00;;;;5006931;27;87819;-71
2023/05/26 03:05:42;;;;;;;3.23;2.63;;;10.60;99.90;10.50;101481.00;;;;5006529;27;108286;-72
2023/05/26 03:08:08;;;;;;;4.20;3.50;;;10.60;99.90;10.40;101476.00;;;;4989741;27;91339;-71
2023/05/26 03:10:35;;;;;;;2.33;2.13;;;10.50;99.90;10.30;101473.00;;;;5007562;27;118535;-71
2023/05/26 03:13:00;;;;;;;2.87;1.90;;;10.40;99.90;10.20;101468.00;;;;5008795;27;103755;-72
2023/05/26 03:15:37;;;;;;;3.87;2.57;;;10.30;99.90;10.20;101479.00;;;;5007632;27;108322;-71
2023/05/26 03:18:03;;;;;;;14.23;6.03;;;10.20;99.90;10.10;101468.00;;;;5007658;27;87915;-71
2023/05/26 03:20:29;;;;;;;7.70;5.30;;;10.20;99.90;10.10;101471.00;;;;5007230;27;109032;-71
2023/05/26 03:22:56;;;;;;;8.10;4.63;;;10.10;99.90;10.00;101471.00;;;;5008133;27;87972;-71
2023/05/26 03:25:22;;;;;;;9.17;5.53;;;10.10;99.90;10.00;101472.00;;;;5009006;27;109028;-70
2023/05/26 03:27:47;;;;;;;6.67;3.90;;;10.10;99.90;10.00;101463.00;;;;5009363;27;88702;-70
2023/05/26 03:30:13;;;;;;;3.00;2.63;;;10.10;99.90;10.00;101466.00;;;;5006445;27;117030;-70
2023/05/26 03:32:39;;;;;;;4.87;4.17;;;10.10;99.90;10.00;101468.00;;;;5008014;27;109727;-70
2023/05/26 03:35:05;;;;;;;3.97;3.17;;;10.10;99.90;10.00;101463.00;;;;5006728;27;88017;-71
2023/05/26 03:37:31;;;;;;;3.63;2.27;;;10.00;99.90;10.00;101469.00;;;;5008510;27;88165;-70
2023/05/26 03:39:57;;;;;;;3.30;3.00;;;10.00;99.90;9.90;101470.00;;;;5006985;27;90286;-71
2023/05/26 03:42:23;;;;;;;3.57;3.17;;;10.00;99.90;9.90;101469.00;;;;5007396;27;110090;-71
2023/05/26 03:44:49;;;;;;;5.90;2.90;;;10.00;99.90;9.90;101466.00;;;;5008520;27;87697;-71
2023/05/26 03:47:15;;;;;;;3.77;2.30;;;10.00;99.90;9.90;101476.00;;;;5008445;27;116739;-71
2023/05/26 03:49:40;;;;;;;4.50;2.57;;;9.90;99.90;9.80;101475.00;;;;5007590;27;117464;-71
2023/05/26 03:52:07;;;;;;;5.67;2.90;;;9.90;99.90;9.90;101474.00;;;;5007604;27;109669;-71
2023/05/26 03:54:32;;;;;;;4.63;2.90;;;9.90;99.90;9.90;101475.00;;;;4985277;27;110546;-71
2023/05/26 03:56:58;;;;;;;4.10;2.53;;;9.90;99.90;9.90;101473.00;;;;5005907;27;117678;-70
2023/05/26 03:59:23;;;;;;;4.73;2.97;;;9.90;99.90;9.90;101469.00;;;;5005284;27;116701;-70
2023/05/26 04:01:49;;;;;;;4.33;2.47;;;9.90;99.90;9.90;101477.00;;;;5005884;27;87714;-70
2023/05/26 04:04:15;;;;;;;4.07;3.37;;;9.90;99.90;10.00;101477.00;;;;5003267;27;109391;-70
2023/05/26 04:06:41;;;;;;;3.07;2.73;;;10.00;99.90;10.00;101477.00;;;;5007621;27;116169;-70
2023/05/26 04:09:07;;;;;;;3.70;2.73;;;10.10;99.90;10.10;101476.00;;;;5004661;27;88434;-70
2023/05/26 04:11:33;;;;;;;3.47;2.23;;;10.10;99.90;10.10;101468.00;;;;5007606;27;87970;-70
2023/05/26 04:13:58;;;;;;;7.13;2.90;;;10.10;99.90;10.10;101477.00;;;;5004899;27;107088;-70
2023/05/26 04:16:24;;;;;;;4.03;3.37;;;10.20;99.90;10.20;101465.00;;;;5007438;27;88799;-70
2023/05/26 04:18:50;;;;;;;5.03;2.33;;;10.20;99.90;10.30;101471.00;;;;5005464;27;98338;-70
2023/05/26 04:21:15;;;;;;;3.57;2.97;;;10.30;99.90;10.30;101473.00;;;;5003960;27;110512;-71
2023/05/26 04:23:41;;;;;;;4.90;3.33;;;10.30;99.90;10.40;101467.00;;;;5006679;27;87899;-70
2023/05/26 04:26:08;;;;;;;4.13;2.80;;;10.40;99.90;10.50;101481.00;;;;5004062;27;118415;-70
2023/05/26 04:28:40;;;;;;;3.67;2.97;;;10.50;99.90;10.60;101477.00;;;;5005281;27;88052;-70
2023/05/26 04:31:08;;;;;;;4.43;3.40;;;10.60;99.90;10.70;101484.00;;;;5001694;27;110498;-70
2023/05/26 04:33:39;;;;;;;4.47;2.70;;;10.70;99.90;10.80;101483.00;;;;5004333;27;109765;-70
2023/05/26 04:36:08;;;;;;;4.83;3.47;;;10.80;99.90;10.90;101492.00;;;;5003634;27;88280;-70
2023/05/26 04:38:36;;;;;;;3.93;2.90;;;10.90;99.90;11.00;101501.00;;;;5005531;27;88634;-70
2023/05/26 04:41:06;;;;;;;3.43;3.10;;;11.00;99.90;11.10;101503.00;;;;5002720;27;88431;-70
2023/05/26 04:43:35;;;;;;;3.27;2.27;;;11.10;99.90;11.30;101513.00;;;;4999690;27;88133;-71
2023/05/26 04:46:02;;;;;;;3.50;2.87;;;11.20;99.90;11.40;101506.00;;;;5004459;27;118893;-70
2023/05/26 04:48:28;;;;;;;5.40;3.87;;;11.40;99.90;11.50;101506.00;;;;4990187;27;89130;-70
2023/05/26 04:50:54;;;;;;;4.80;3.47;;;11.50;99.90;11.70;101504.00;;;;4961480;27;1110117;-69
2023/05/26 04:53:20;;;;;;;3.63;2.77;;;11.70;99.90;11.80;101511.00;;;;5002930;27;108978;-71
2023/05/26 04:55:47;;;;;;;4.83;2.57;;;11.80;99.90;12.00;101517.00;;;;5001579;27;116991;-70
2023/05/26 04:58:13;;;;;;;5.03;2.70;;;12.00;99.90;12.20;101519.00;;;;4998878;27;88578;-70
2023/05/26 05:00:38;;;;;;;2.97;2.50;;;12.10;99.90;12.30;101517.00;;;;5005106;27;103205;-70
2023/05/26 05:03:04;;;;;;;4.50;2.97;;;12.30;99.90;12.50;101513.00;;;;5005266;27;108056;-69
2023/05/26 05:05:30;;;;;;;4.37;3.77;;;12.50;99.90;12.70;101519.00;;;;4994395;27;88986;-70
2023/05/26 05:07:56;;;;;;;2.43;2.23;;;12.60;99.90;12.80;101525.00;;;;5001306;27;115607;-70
2023/05/26 05:10:22;;;;;;;3.43;2.60;;;12.80;99.90;13.00;101520.00;;;;5002012;27;100270;-71
2023/05/26 05:12:48;;;;;;;14.63;3.10;;;12.90;99.90;13.20;101532.00;;;;5001253;27;108969;-70
2023/05/26 05:15:14;;;;;;;2.83;2.50;;;13.10;99.90;13.40;101538.00;;;;4999713;27;97450;-71
2023/05/26 05:17:40;;;;;;;4.37;2.33;;;13.30;99.90;13.60;101530.00;;;;4996470;27;88657;-70
2023/05/26 05:20:07;;;;;;;3.10;2.20;;;13.40;99.90;13.70;101536.00;;;;5000425;27;110855;-70
2023/05/26 05:22:33;;;;;;;3.10;2.33;;;13.60;99.90;13.90;101545.00;;;;5001647;27;88163;-70
2023/05/26 05:24:58;;;;;;;8.13;2.60;;;13.80;99.90;14.10;101552.00;;;;5002472;27;88295;-70
2023/05/26 05:27:25;;;;;;;3.47;2.30;;;14.00;99.90;14.30;101546.00;;;;5001965;27;118005;-71
2023/05/26 05:29:50;;;;;;;5.87;3.57;;;14.20;99.90;14.60;101543.00;;;;5002177;27;87882;-70
2023/05/26 05:32:16;;;;;;;4.63;3.40;;;14.40;99.90;14.70;101550.00;;;;5002064;27;108316;-70
2023/05/26 05:34:42;;;;;;;3.57;2.77;;;14.60;99.90;14.90;101547.00;;;;5000563;27;98844;-70
2023/05/26 05:37:07;;;;;;;4.25;2.28;;;14.80;99.90;15.10;101549.00;;;;5001042;27;119230;-70
2023/05/26 05:39:33;;;;;;;5.97;2.72;;;15.00;99.90;15.30;101549.00;;;;4999823;27;100150;-71
2023/05/26 05:41:59;;;;;;;4.50;2.92;;;15.20;99.90;15.50;101545.00;;;;5002768;27;109241;-70
2023/05/26 05:44:24;;;;;;;5.43;2.53;;;15.40;99.90;15.70;101546.00;;;;5001378;27;87946;-70
2023/05/26 05:46:51;;;;;;;2.08;1.88;;;15.50;99.90;15.80;101543.00;;;;4998552;27;117016;-71
2023/05/26 05:49:17;;;;;;;3.95;2.65;;;15.70;99.90;16.00;101551.00;;;;5000937;27;88071;-70
2023/05/26 05:51:42;;;;;;;5.07;2.00;;;15.90;99.90;16.20;101559.00;;;;5001908;27;109564;-71
2023/05/26 05:54:08;;;;;;;3.95;2.65;;;16.10;99.90;16.30;101550.00;;;;4999657;27;115093;-70
2023/05/26 05:56:34;;;;;;;2.47;2.15;;;16.20;99.90;16.50;101558.00;;;;5002322;27;88891;-70
2023/05/26 05:58:59;;;;;;;7.63;2.38;;;16.40;99.90;16.70;101554.00;;;;5000920;27;88923;-70
2023/05/26 06:01:25;;;;;;;3.42;2.08;;;16.60;99.90;17.00;101553.00;;;;4999285;27;111432;-70
2023/05/26 06:03:51;;;;;;;4.47;2.13;;;16.80;99.90;17.20;101555.00;;;;5001562;27;88251;-70
2023/05/26 06:06:17;;;;;;;4.80;2.60;;;17.00;99.90;17.40;101574.00;;;;4998013;27;118167;-71
2023/05/26 06:08:43;;;;;;;5.80;3.03;;;17.20;99.90;17.70;101576.00;;;;5002264;27;109168;-71
2023/05/26 06:11:08;;;;;;;5.13;2.90;;;17.50;99.90;17.80;101563.00;;;;5000571;27;96090;-71
2023/05/26 06:13:37;;;;;;;2.67;1.75;;;17.70;99.90;18.00;101568.00;;;;5000499;27;117732;-70
2023/05/26 06:16:06;;;;;;;4.72;1.88;;;17.90;99.90;18.20;101568.00;;;;5002517;27;88116;-70
2023/05/26 06:18:31;;;;;;;5.93;2.42;;;18.00;99.10;18.30;101577.00;;;;5001564;27;101647;-70
2023/05/26 06:20:57;;;;;;;3.50;2.17;;;18.20;98.30;18.50;101572.00;;;;5001066;27;87899;-71
2023/05/26 06:23:23;;;;;;;1.60;1.33;;;18.30;97.90;18.70;101569.00;;;;4999180;27;118854;-71
2023/05/26 06:25:48;;;;;;;3.85;2.60;;;18.50;97.50;18.90;101581.00;;;;5001534;27;120179;-71
2023/05/26 06:28:14;;;;;;;6.20;2.67;;;18.70;97.10;19.10;101571.00;;;;4998455;27;109556;-71
2023/05/26 06:30:40;;;;;;;7.32;2.60;;;18.90;96.50;19.30;101584.00;;;;5002215;27;108610;-71
2023/05/26 06:33:05;;;;;;;2.78;2.05;;;19.10;95.90;19.50;101575.00;;;;5002246;27;88812;-71
2023/05/26 06:35:31;;;;;;;6.13;2.15;;;19.40;95.30;19.70;101584.00;;;;5000597;27;117846;-71
2023/05/26 06:37:57;;;;;;;4.38;1.98;;;19.60;94.70;20.00;101580.00;;;;4999915;27;109303;-70
2023/05/26 06:40:22;;;;;;;2.90;1.98;;;19.80;94.20;20.20;101583.00;;;;4997651;27;109577;-69
2023/05/26 06:42:48;;;;;;;2.05;1.85;;;20.00;93.50;20.30;101577.00;;;;5000081;27;94295;-70
2023/05/26 06:45:14;;;;;;;2.72;1.90;;;20.20;92.70;20.50;101578.00;;;;5001437;27;117260;-70
2023/05/26 06:47:40;;;;;;;5.68;2.60;;;20.30;92.10;20.70;101586.00;;;;4999908;27;108301;-71
2023/05/26 06:50:07;;;;;;;6.45;2.42;;;20.50;91.50;20.80;101578.00;;;;5001169;27;108121;-72
2023/05/26 06:52:35;;;;;;;3.00;1.88;;;20.60;90.50;20.90;101584.00;;;;5001156;27;108348;-72
2023/05/26 06:55:01;;;;;;;5.28;3.13;;;20.80;89.90;21.00;101576.00;;;;4998485;27;117681;-72
2023/05/26 06:57:26;;;;;;;8.77;2.65;;;20.90;88.50;21.10;101582.00;;;;5000438;27;113184;-70
2023/05/26 06:59:52;;;;;;;2.15;1.98;;;20.90;87.40;21.10;101587.00;;;;4999657;27;108922;-70
2023/05/26 07:02:18;;;;;;;2.78;1.90;;;21.00;86.10;21.20;101590.00;;;;5002380;27;88095;-70
2023/05/26 07:04:44;;;;;;;2.63;1.63;;;21.00;85.20;21.20;101592.00;;;;5000348;27;115320;-71
2023/05/26 07:07:09;;;;;;;2.45;1.50;;;21.10;84.20;21.30;101596.00;;;;5000249;27;87752;-70
2023/05/26 07:09:35;;;;;;;4.25;1.77;;;21.20;83.20;21.30;101600.00;;;;4999377;27;108858;-70
2023/05/26 07:12:01;;;;;;;2.70;1.73;;;21.20;81.80;21.30;101596.00;;;;5002832;27;89293;-72
2023/05/26 07:14:29;;;;;;;2.72;1.92;;;21.20;81.00;21.30;101591.00;;;;4999337;27;119774;-70
2023/05/26 07:16:55;;;;;;;6.82;2.15;;;21.20;80.00;21.20;101597.00;;;;4984805;27;109820;-70
2023/05/26 07:19:20;;;;;;;6.15;2.42;;;21.10;79.40;21.20;101595.00;;;;4997365;27;88014;-71
2023/05/26 07:21:46;;;;;;;5.10;2.50;;;21.00;79.00;21.10;101600.00;;;;4999607;27;116523;-71
2023/05/26 07:24:12;;;;;;;3.58;2.20;;;21.00;78.70;21.20;101600.00;;;;5000065;27;117271;-70
2023/05/26 07:26:37;;;;;;;3.88;1.38;;;21.00;78.30;21.20;101602.00;;;;5001237;27;110800;-71
2023/05/26 07:29:03;;;;;;;6.10;1.80;;;21.30;77.60;21.20;101600.00;;;;5001890;27;109059;-72
2023/05/26 07:31:29;;;;;;;3.85;2.10;;;21.00;76.60;21.30;101604.00;;;;5001060;27;116877;-71
2023/05/26 07:33:54;;;;;;;6.93;2.28;;;21.10;76.10;21.30;101601.00;;;;5001530;27;88121;-69
2023/05/26 07:36:20;;;;;;;2.95;2.00;;;21.10;74.90;21.30;101598.00;;;;5002599;27;88820;-70
2023/05/26 07:38:46;;;;;;;5.15;1.95;;;21.20;75.30;21.50;101601.00;;;;5001611;27;88030;-70
2023/05/26 07:41:11;;;;;;;7.82;2.13;;;21.30;74.30;21.70;101596.00;;;;5000195;27;117291;-71
2023/05/26 07:43:37;;;;;;;8.75;2.42;;;21.50;73.80;21.90;101594.00;;;;4987996;27;116700;-70
2023/05/26 07:46:03;;;;;;;5.30;2.38;;;21.70;73.30;22.10;101604.00;;;;5006284;27;87949;-71
2023/05/26 07:48:28;;;;;;;1.90;1.25;;;21.80;72.50;22.20;101604.00;;;;5002971;27;108381;-70
2023/05/26 07:50:54;;;;;;;2.15;1.95;;;21.90;71.20;22.20;101608.00;;;;5005232;27;87864;-70
2023/05/26 07:53:20;;;;;;;6.28;2.13;;;22.00;70.80;22.40;101599.00;;;;5004530;27;88457;-70
2023/05/26 07:55:45;;;;;;;5.25;1.90;;;22.10;70.30;22.40;101609.00;;;;5004197;27;109279;-70
2023/05/26 07:58:12;;;;;;;4.10;2.28;;;22.30;69.70;22.50;101606.00;;;;5002589;27;109054;-69
2023/05/26 08:00:38;;;;;;;10.30;1.80;;;22.30;68.80;22.70;101602.00;;;;4987992;27;117843;-71
2023/05/26 08:03:04;;;;;;;3.03;1.63;;;22.50;68.20;22.80;101598.00;;;;4990976;27;117160;-72
2023/05/26 08:05:30;;;;;;;2.03;1.70;;;22.50;67.10;22.90;101591.00;;;;5004149;27;88871;-72
2023/05/26 08:07:56;;;;;;;2.50;1.30;;;22.60;66.10;23.00;101595.00;;;;5002598;27;88294;-69
2023/05/26 08:10:23;;;;;;;5.32;2.25;;;22.80;65.60;23.30;101592.00;;;;5004132;27;88806;-72
2023/05/26 08:12:50;;;;;;;2.63;1.38;;;23.00;63.70;23.50;101590.00;;;;5002369;27;109650;-69
2023/05/26 08:15:17;;;;;;;2.50;2.13;;;23.20;61.40;23.70;101589.00;;;;4989254;27;88241;-72
2023/05/26 08:17:43;;;;;;;5.10;2.72;;;23.40;61.20;23.90;101589.00;;;;4985672;27;95999;-71
2023/05/26 08:20:09;;;;;;;2.47;1.60;;;23.60;60.00;24.10;101588.00;;;;4987673;27;88140;-73
2023/05/26 08:22:36;;;;;;;1.75;1.52;;;23.80;59.00;24.20;101592.00;;;;5002447;27;88033;-71
2023/05/26 08:25:03;;;;;;;5.43;1.70;;;23.90;58.50;24.40;101599.00;;;;5001460;27;92180;-71
2023/05/26 08:27:28;;;;;;;3.90;1.52;;;24.10;58.10;24.40;101596.00;;;;5004985;27;88123;-70
2023/05/26 08:29:54;;;;;;;3.83;1.40;;;24.20;56.70;24.30;101601.00;;;;5004261;27;117186;-70
2023/05/26 08:32:20;;;;;;;2.78;1.05;;;24.20;56.00;24.20;101598.00;;;;5002429;27;107477;-70
2023/05/26 08:34:45;;;;;;;3.40;1.60;;;24.10;55.90;24.20;101591.00;;;;4989444;27;104862;-71
2023/05/26 08:37:13;;;;;;;3.95;2.25;;;24.00;55.50;24.00;101598.00;;;;4999975;27;108884;-70
2023/05/26 08:39:40;;;;;;;4.93;2.05;;;23.90;55.30;24.00;101598.00;;;;5004728;27;87882;-72
2023/05/26 08:42:17;;;;;;;3.95;2.17;;;23.80;55.10;24.00;101598.00;;;;5003287;27;88316;-71
2023/05/26 08:44:44;;;;;;;1.33;1.20;;;23.80;54.80;24.10;101590.00;;;;4991785;27;88408;-75
2023/05/26 08:47:12;;;;;;;2.45;1.42;;;23.80;54.30;24.20;101581.00;;;;4983561;27;89015;-73
2023/05/26 08:49:46;;;;;;;3.08;1.60;;;24.00;54.00;24.50;101591.00;;;;5005306;27;90190;-74
2023/05/26 08:52:14;;;;;;;2.45;1.73;;;24.10;53.70;24.70;101593.00;;;;5004677;27;89086;-77
2023/05/26 08:54:40;;;;;;;5.40;2.38;;;24.30;53.20;24.80;101595.00;;;;5002194;27;88020;-74
2023/05/26 08:57:06;;;;;;;3.35;1.58;;;24.50;52.30;24.90;101589.00;;;;4985357;27;88695;-74
2023/05/26 08:59:33;;;;;;;3.75;2.00;;;24.60;52.20;25.10;101595.00;;;;4989114;27;100497;-76
2023/05/26 09:01:59;;;;;;;2.88;1.40;;;24.70;51.70;25.30;101590.00;;;;4984853;27;117449;-73
2023/05/26 09:04:28;;;;;;;11.10;1.10;;;24.90;50.80;25.40;101583.00;;;;5004648;27;88118;-72
2023/05/26 09:06:54;;;;;;;2.28;1.48;;;25.10;50.30;25.60;101589.00;;;;5006649;27;87193;-74
2023/05/26 09:09:20;;;;;;;4.53;1.35;;;25.20;49.30;25.60;101594.00;;;;5000991;27;88312;-74
2023/05/26 09:11:48;;;;;;;3.25;1.45;;;25.30;48.30;25.70;101584.00;;;;5002223;27;117661;-72
2023/05/26 09:14:20;;;;;;;2.60;1.38;;;25.40;48.30;25.80;101586.00;;;;5002277;27;88836;-73
2023/05/26 09:16:46;;;;;;;3.33;1.25;;;25.50;48.20;26.00;101589.00;;;;4991538;27;87845;-76
2023/05/26 09:19:17;;;;;;;2.95;1.13;;;25.60;47.30;26.10;101598.00;;;;4967209;27;90553;-75
2023/05/26 09:21:48;;;;;;;1.67;0.90;;;25.80;43.70;26.20;101592.00;;;;5003052;27;88934;-73
2023/05/26 09:24:17;;;;;;;1.30;1.00;;;25.90;42.40;26.20;101596.00;;;;5002665;27;87660;-76
2023/05/26 09:26:46;;;;;;;2.30;1.15;;;25.90;41.70;26.30;101595.00;;;;4999403;27;87962;-74
2023/05/26 09:29:12;;;;;;;2.25;0.57;;;26.00;42.20;26.50;101593.00;;;;5001253;27;93730;-74
2023/05/26 09:31:49;;;;;;;8.75;1.48;;;26.10;42.00;26.60;101597.00;;;;4991477;27;87689;-72
2023/05/26 09:34:23;;;;;;;3.15;1.38;;;26.20;41.30;26.80;101589.00;;;;5002448;27;87674;-72
2023/05/26 09:36:49;;;;;;;8.27;1.10;;;26.40;41.60;27.00;101592.00;;;;4970214;27;88093;-73
2023/05/26 09:39:16;;;;;;;3.15;1.83;;;26.50;41.80;27.10;101594.00;;;;4989341;27;88834;-72
2023/05/26 09:41:44;;;;;;;5.15;1.55;;;26.70;40.60;27.00;101594.00;;;;4999414;27;118485;-73
2023/05/26 09:44:20;;;;;;;2.90;0.90;;;26.70;40.60;26.90;101588.00;;;;5005416;27;88206;-73
2023/05/26 09:46:46;;;;;;;3.67;1.58;;;26.70;40.60;27.00;101590.00;;;;5001956;27;88308;-73
2023/05/26 09:49:17;;;;;;;3.13;1.30;;;26.60;40.70;27.00;101593.00;;;;4984670;27;88055;-72
2023/05/26 09:51:48;;;;;;;2.38;0.93;;;26.70;40.40;27.00;101592.00;;;;5001736;27;109073;-75
2023/05/26 09:54:15;;;;;;;4.30;1.60;;;26.70;40.00;27.00;101586.00;;;;4986330;27;93613;-72
2023/05/26 09:56:58;;;;;;;4.20;1.65;;;26.70;39.90;27.00;101598.00;;;;4980311;28;87427;-73
2023/05/26 09:59:31;;;;;;;2.47;1.38;;;26.70;40.00;27.20;101606.00;;;;4962487;27;106646;-74
2023/05/26 10:01:58;;;;;;;1.80;1.02;;;26.80;40.10;27.30;101604.00;;;;4987837;27;87915;-77
2023/05/26 10:04:24;;;;;;;2.35;1.33;;;26.90;39.20;27.40;101603.00;;;;4985955;27;93994;-75
2023/05/26 10:06:52;;;;;;;2.72;1.40;;;26.90;37.90;27.60;101612.00;;;;4997377;27;88034;-74
2023/05/26 10:09:22;;;;;;;0.93;0.75;;;27.10;37.80;27.70;101614.00;;;;4971719;27;89965;-75
2023/05/26 10:11:50;;;;;;;1.20;0.95;;;27.30;36.60;27.60;101602.00;;;;5002319;27;98733;-75
2023/05/26 10:14:16;;;;;;;2.35;1.30;;;27.20;36.40;27.70;101603.00;;;;4987928;27;88160;-72
2023/05/26 10:16:42;;;;;;;1.63;1.17;;;27.30;36.00;27.80;101603.00;;;;4988478;27;108490;-73
2023/05/26 10:19:08;;;;;;;4.13;0.93;;;27.30;36.20;27.90;101599.00;;;;5001474;27;88371;-72
2023/05/26 10:21:39;;;;;;;4.10;1.17;;;27.40;36.50;28.10;101594.00;;;;5002616;27;116699;-72
2023/05/26 10:24:28;;;;;;;2.63;0.80;;;27.50;36.40;28.30;101581.00;;;;4987519;27;98641;-73
2023/05/26 10:27:15;;;;;;;3.97;0.77;;;27.70;36.10;28.20;101581.00;;;;4989909;27;87858;-73
2023/05/26 10:30:00;;;;;;;2.50;1.35;;;27.70;34.80;28.30;101587.00;;;;4987230;27;91485;-73
2023/05/26 10:32:52;;;;;;;1.48;1.02;;;27.70;35.60;28.40;101576.00;;;;4972974;27;90318;-75
2023/05/26 10:35:31;;;;;;;0.98;0.88;;;27.80;35.20;28.60;101588.00;;;;4988920;27;88149;-73
2023/05/26 10:38:02;;;;;;;3.83;1.08;;;27.90;35.50;28.70;101589.00;;;;4996917;27;88757;-76
2023/05/26 10:40:51;;;;;;;4.80;1.55;;;28.10;35.50;28.90;101593.00;;;;4999704;27;117498;-73
2023/05/26 10:43:27;;;;;;;1.13;0.95;;;28.20;35.30;29.00;101587.00;;;;4962419;27;88088;-73
2023/05/26 10:46:04;;;;;;;1.45;1.30;;;28.30;34.50;29.00;101595.00;;;;4989060;27;102789;-72
2023/05/26 10:48:37;;;;;;;8.85;1.77;;;28.30;34.40;29.10;101589.00;;;;4984619;27;87017;-75